sensor_id;sensor_type;location;lat;lon;timestamp;pressure;altitude;pressure_sealevel;temperature;humidity
44481;BME280;30184;42.018;23.670;2022-09-17T00:02:29;90983.13;;;15.27;77.77
44481;BME280;30184;42.018;23.670;2022-09-17T00:05:35;90460.03;;;11.90;77.74
44481;BME280;30184;42.018;23.670;2022-09-17T00:08:25;90877.75;;;14.09;79.09
44481;BME280;30184;42.018;23.670;2022-09-17T00:11:31;90539.56;;;12.62;78.45
44481;BME280;30184;42.018;23.670;2022-09-17T00:14:15;90678.00;;;13.17;78.72
44481;BME280;30184;42.018;23.670;2022-09-17T00:17:11;90626.53;;;13.19;78.70
44481;BME280;30184;42.018;23.670;2022-09-17T00:19:47;90750.38;;;14.00;78.87
44481;BME280;30184;42.018;23.670;2022-09-17T00:22:17;91013.00;;;15.02;79.13
44481;BME280;30184;42.018;23.670;2022-09-17T00:24:50;90662.66;;;13.04;78.90
44481;BME280;30184;42.018;23.670;2022-09-17T00:27:33;90466.50;;;11.45;79.04
44481;BME280;30184;42.018;23.670;2022-09-17T00:30:22;90690.28;;;12.88;78.86
44481;BME280;30184;42.018;23.670;2022-09-17T00:33:01;90633.25;;;13.08;79.28
44481;BME280;30184;42.018;23.670;2022-09-17T00:35:33;90696.69;;;12.85;79.24
44481;BME280;30184;42.018;23.670;2022-09-17T00:38:11;90569.38;;;11.94;79.36
44481;BME280;30184;42.018;23.670;2022-09-17T00:41:31;90914.28;;;14.79;79.87
44481;BME280;30184;42.018;23.670;2022-09-17T00:49:43;90610.44;;;12.44;79.78
44481;BME280;30184;42.018;23.670;2022-09-17T00:53:11;90912.31;;;14.80;79.89
44481;BME280;30184;42.018;23.670;2022-09-17T00:55:49;91026.06;;;14.83;79.63
44481;BME280;30184;42.018;23.670;2022-09-17T00:58:21;90907.13;;;14.82;79.50
44481;BME280;30184;42.018;23.670;2022-09-17T01:00:56;90754.25;;;13.79;79.45
44481;BME280;30184;42.018;23.670;2022-09-17T01:03:27;90668.34;;;13.16;79.27
44481;BME280;30184;42.018;23.670;2022-09-17T01:06:12;90728.53;;;13.56;79.30
44481;BME280;30184;42.018;23.670;2022-09-17T01:09:03;90912.13;;;14.54;79.67
44481;BME280;30184;42.018;23.670;2022-09-17T01:12:14;90554.47;;;11.80;79.08
44481;BME280;30184;42.018;23.670;2022-09-17T01:15:23;90559.81;;;11.66;79.10
44481;BME280;30184;42.018;23.670;2022-09-17T01:18:12;90758.47;;;13.80;79.55
44481;BME280;30184;42.018;23.670;2022-09-17T01:21:19;90741.25;;;13.74;79.30
44481;BME280;30184;42.018;23.670;2022-09-17T01:27:14;90608.84;;;11.71;79.67
44481;BME280;30184;42.018;23.670;2022-09-17T01:29:58;90756.59;;;13.71;79.75
44481;BME280;30184;42.018;23.670;2022-09-17T01:32:35;90910.97;;;14.75;79.77
44481;BME280;30184;42.018;23.670;2022-09-17T01:35:13;91056.78;;;14.78;79.93
44481;BME280;30184;42.018;23.670;2022-09-17T01:37:49;90704.78;;;12.94;80.08
44481;BME280;30184;42.018;23.670;2022-09-17T01:40:26;90560.66;;;12.52;80.33
44481;BME280;30184;42.018;23.670;2022-09-17T01:43:03;90744.34;;;13.81;80.48
44481;BME280;30184;42.018;23.670;2022-09-17T01:45:38;90643.84;;;13.16;80.66
44481;BME280;30184;42.018;23.670;2022-09-17T01:48:14;90961.00;;;14.96;79.91
44481;BME280;30184;42.018;23.670;2022-09-17T01:50:49;90620.97;;;13.13;79.37
44481;BME280;30184;42.018;23.670;2022-09-17T01:53:22;90894.56;;;15.05;78.71
44481;BME280;30184;42.018;23.670;2022-09-17T01:55:54;90732.03;;;13.18;78.35
44481;BME280;30184;42.018;23.670;2022-09-17T01:58:28;90897.31;;;15.05;78.81
44481;BME280;30184;42.018;23.670;2022-09-17T02:01:02;90882.34;;;15.00;78.76
44481;BME280;30184;42.018;23.670;2022-09-17T02:03:38;91035.53;;;14.97;78.90
44481;BME280;30184;42.018;23.670;2022-09-17T02:06:12;90886.94;;;14.94;78.82
44481;BME280;30184;42.018;23.670;2022-09-17T02:08:48;90876.50;;;14.92;79.26
44481;BME280;30184;42.018;23.670;2022-09-17T02:11:19;90915.91;;;13.94;79.32
44481;BME280;30184;42.018;23.670;2022-09-17T02:13:53;90970.13;;;14.93;79.82
44481;BME280;30184;42.018;23.670;2022-09-17T02:16:59;90871.78;;;14.93;79.63
44481;BME280;30184;42.018;23.670;2022-09-17T02:19:35;90600.72;;;13.14;79.74
44481;BME280;30184;42.018;23.670;2022-09-17T02:22:17;90713.50;;;13.90;80.20
44481;BME280;30184;42.018;23.670;2022-09-17T02:24:58;90666.56;;;13.27;80.24
44481;BME280;30184;42.018;23.670;2022-09-17T02:27:36;90806.53;;;13.92;80.66
44481;BME280;30184;42.018;23.670;2022-09-17T02:30:10;90473.56;;;12.38;79.77
44481;BME280;30184;42.018;23.670;2022-09-17T02:32:43;90986.34;;;14.97;79.78
44481;BME280;30184;42.018;23.670;2022-09-17T02:35:15;90515.53;;;12.60;80.15
44481;BME280;30184;42.018;23.670;2022-09-17T02:37:49;90816.06;;;14.55;80.11
44481;BME280;30184;42.018;23.670;2022-09-17T02:40:21;90969.47;;;14.98;80.48
44481;BME280;30184;42.018;23.670;2022-09-17T02:43:07;90545.34;;;12.16;79.94
44481;BME280;30184;42.018;23.670;2022-09-17T02:45:47;90852.94;;;14.95;79.58
44481;BME280;30184;42.018;23.670;2022-09-17T02:48:30;90670.63;;;13.08;79.01
44481;BME280;30184;42.018;23.670;2022-09-17T02:51:13;90431.28;;;11.98;79.01
44481;BME280;30184;42.018;23.670;2022-09-17T02:53:55;91014.69;;;14.84;79.33
44481;BME280;30184;42.018;23.670;2022-09-17T02:56:37;90909.38;;;14.83;79.99
44481;BME280;30184;42.018;23.670;2022-09-17T02:59:15;90779.50;;;13.65;80.18
44481;BME280;30184;42.018;23.670;2022-09-17T03:01:51;90478.16;;;11.93;80.03
44481;BME280;30184;42.018;23.670;2022-09-17T03:04:26;90937.94;;;14.82;80.34
44481;BME280;30184;42.018;23.670;2022-09-17T03:11:34;90825.94;;;14.82;80.66
44481;BME280;30184;42.018;23.670;2022-09-17T03:14:04;90665.66;;;13.74;80.73
44481;BME280;30184;42.018;23.670;2022-09-17T03:16:34;90590.75;;;13.26;80.16
44481;BME280;30184;42.018;23.670;2022-09-17T03:19:48;90862.63;;;14.37;80.36
44481;BME280;30184;42.018;23.670;2022-09-17T03:22:06;90904.38;;;14.67;80.66
44481;BME280;30184;42.018;23.670;2022-09-17T03:24:38;90797.13;;;14.67;80.76
44481;BME280;30184;42.018;23.670;2022-09-17T03:27:09;90604.47;;;13.46;80.86
44481;BME280;30184;42.018;23.670;2022-09-17T03:29:42;90924.16;;;14.62;80.96
44481;BME280;30184;42.018;23.670;2022-09-17T03:32:12;90626.00;;;13.59;80.99
44481;BME280;30184;42.018;23.670;2022-09-17T03:34:41;90878.22;;;14.61;81.24
44481;BME280;30184;42.018;23.670;2022-09-17T03:37:11;90838.94;;;14.58;81.59
44481;BME280;30184;42.018;23.670;2022-09-17T03:39:40;90584.25;;;12.70;81.38
44481;BME280;30184;42.018;23.670;2022-09-17T03:42:11;90521.38;;;12.68;81.01
44481;BME280;30184;42.018;23.670;2022-09-17T03:44:41;90508.41;;;12.48;80.96
44481;BME280;30184;42.018;23.670;2022-09-17T03:47:12;90670.63;;;12.69;81.16
44481;BME280;30184;42.018;23.670;2022-09-17T03:49:43;90615.16;;;12.67;81.49
44481;BME280;30184;42.018;23.670;2022-09-17T03:55:36;90483.53;;;11.78;81.24
44481;BME280;30184;42.018;23.670;2022-09-17T03:58:28;90443.25;;;11.20;81.27
44481;BME280;30184;42.018;23.670;2022-09-17T04:05:32;90784.09;;;14.41;81.34
44481;BME280;30184;42.018;23.670;2022-09-17T04:08:03;90474.88;;;12.27;81.43
44481;BME280;30184;42.018;23.670;2022-09-17T04:10:38;90802.44;;;14.41;81.81
44481;BME280;30184;42.018;23.670;2022-09-17T04:13:09;90564.88;;;12.53;81.80
44481;BME280;30184;42.018;23.670;2022-09-17T04:15:41;90496.59;;;11.89;81.89
44481;BME280;30184;42.018;23.670;2022-09-17T04:18:10;90797.78;;;13.50;81.84
44481;BME280;30184;42.018;23.670;2022-09-17T04:20:40;90892.78;;;13.90;81.61
44481;BME280;30184;42.018;23.670;2022-09-17T04:23:10;90510.22;;;12.27;81.58
44481;BME280;30184;42.018;23.670;2022-09-17T04:25:40;90717.47;;;12.74;81.86
44481;BME280;30184;42.018;23.670;2022-09-17T04:28:10;90806.28;;;14.49;81.63
44481;BME280;30184;42.018;23.670;2022-09-17T04:30:40;90623.72;;;13.28;81.40
44481;BME280;30184;42.018;23.670;2022-09-17T04:33:09;90568.28;;;12.01;81.07
44481;BME280;30184;42.018;23.670;2022-09-17T04:35:39;90613.50;;;13.23;81.46
44481;BME280;30184;42.018;23.670;2022-09-17T04:38:08;90927.91;;;14.50;81.65
44481;BME280;30184;42.018;23.670;2022-09-17T04:40:40;90742.16;;;13.18;81.60
44481;BME280;30184;42.018;23.670;2022-09-17T04:43:09;90426.47;;;12.17;81.42
44481;BME280;30184;42.018;23.670;2022-09-17T04:45:40;90496.59;;;11.89;81.42
44481;BME280;30184;42.018;23.670;2022-09-17T04:48:09;90618.78;;;13.02;81.59
44481;BME280;30184;42.018;23.670;2022-09-17T04:50:38;90862.56;;;13.93;81.09
44481;BME280;30184;42.018;23.670;2022-09-17T04:53:07;90794.59;;;14.78;80.86
44481;BME280;30184;42.018;23.670;2022-09-17T04:55:36;90549.34;;;13.22;80.96
44481;BME280;30184;42.018;23.670;2022-09-17T04:58:05;90687.38;;;13.98;80.17
44481;BME280;30184;42.018;23.670;2022-09-17T05:00:34;90797.38;;;14.98;79.93
44481;BME280;30184;42.018;23.670;2022-09-17T05:03:05;90590.38;;;13.62;80.00
44481;BME280;30184;42.018;23.670;2022-09-17T05:05:34;90573.44;;;12.61;80.18
44481;BME280;30184;42.018;23.670;2022-09-17T05:08:03;90412.22;;;12.37;79.90
44481;BME280;30184;42.018;23.670;2022-09-17T05:10:32;90850.59;;;14.88;79.28
44481;BME280;30184;42.018;23.670;2022-09-17T05:13:01;90544.59;;;12.78;79.06
44481;BME280;30184;42.018;23.670;2022-09-17T05:15:30;90779.94;;;14.61;79.23
44481;BME280;30184;42.018;23.670;2022-09-17T05:17:59;90936.34;;;15.40;79.01
44481;BME280;30184;42.018;23.670;2022-09-17T05:20:30;90763.22;;;15.08;79.77
44481;BME280;30184;42.018;23.670;2022-09-17T05:22:59;90377.16;;;12.39;80.73
44481;BME280;30184;42.018;23.670;2022-09-17T05:25:28;90775.41;;;14.72;79.69
44481;BME280;30184;42.018;23.670;2022-09-17T05:27:57;90977.94;;;15.44;80.81
44481;BME280;30184;42.018;23.670;2022-09-17T05:30:27;90868.00;;;15.55;80.43
44481;BME280;30184;42.018;23.670;2022-09-17T05:33:00;90901.09;;;15.57;81.25
44481;BME280;30184;42.018;23.670;2022-09-17T05:35:33;90658.78;;;13.35;81.51
44481;BME280;30184;42.018;23.670;2022-09-17T05:38:04;90800.16;;;14.25;80.98
44481;BME280;30184;42.018;23.670;2022-09-17T05:40:37;91014.88;;;15.69;81.49
44481;BME280;30184;42.018;23.670;2022-09-17T05:43:06;90922.56;;;14.85;81.32
44481;BME280;30184;42.018;23.670;2022-09-17T05:45:35;90857.13;;;15.60;82.88
44481;BME280;30184;42.018;23.670;2022-09-17T05:48:07;90992.34;;;15.74;84.19
44481;BME280;30184;42.018;23.670;2022-09-17T05:50:39;90724.81;;;14.27;85.27
44481;BME280;30184;42.018;23.670;2022-09-17T05:53:12;90872.84;;;15.86;85.46
44481;BME280;30184;42.018;23.670;2022-09-17T05:55:41;90554.03;;;13.51;84.56
44481;BME280;30184;42.018;23.670;2022-09-17T05:58:11;90500.16;;;13.60;85.57
44481;BME280;30184;42.018;23.670;2022-09-17T06:00:40;90636.50;;;14.30;85.02
44481;BME280;30184;42.018;23.670;2022-09-17T06:03:10;90810.44;;;15.84;85.43
44481;BME280;30184;42.018;23.670;2022-09-17T06:05:41;90837.69;;;15.58;84.85
44481;BME280;30184;42.018;23.670;2022-09-17T06:08:10;90853.81;;;16.63;84.72
44481;BME280;30184;42.018;23.670;2022-09-17T06:10:41;90649.16;;;15.49;85.26
44481;BME280;30184;42.018;23.670;2022-09-17T06:13:10;90857.09;;;16.99;84.44
44481;BME280;30184;42.018;23.670;2022-09-17T06:15:42;90825.75;;;17.05;83.91
44481;BME280;30184;42.018;23.670;2022-09-17T06:18:11;90682.00;;;16.32;83.03
44481;BME280;30184;42.018;23.670;2022-09-17T06:20:41;90852.63;;;17.70;82.48
44481;BME280;30184;42.018;23.670;2022-09-17T06:23:10;90531.34;;;15.79;81.37
44481;BME280;30184;42.018;23.670;2022-09-17T06:25:42;90804.50;;;17.32;81.20
44481;BME280;30184;42.018;23.670;2022-09-17T06:28:11;90965.06;;;18.49;78.79
44481;BME280;30184;42.018;23.670;2022-09-17T06:30:40;90688.66;;;17.53;78.23
44481;BME280;30184;42.018;23.670;2022-09-17T06:33:09;90657.31;;;17.01;77.40
44481;BME280;30184;42.018;23.670;2022-09-17T06:35:38;90570.72;;;16.66;75.03
44481;BME280;30184;42.018;23.670;2022-09-17T06:38:09;90605.94;;;17.77;75.52
44481;BME280;30184;42.018;23.670;2022-09-17T06:40:38;90784.53;;;19.06;73.82
44481;BME280;30184;42.018;23.670;2022-09-17T06:43:07;90755.53;;;18.93;73.48
44481;BME280;30184;42.018;23.670;2022-09-17T06:45:36;90568.25;;;17.72;74.33
44481;BME280;30184;42.018;23.670;2022-09-17T06:48:06;90712.53;;;19.01;74.06
44481;BME280;30184;42.018;23.670;2022-09-17T06:50:35;90468.50;;;17.42;74.74
44481;BME280;30184;42.018;23.670;2022-09-17T06:53:09;90833.69;;;19.82;73.82
44481;BME280;30184;42.018;23.670;2022-09-17T06:55:38;90620.41;;;18.45;73.14
44481;BME280;30184;42.018;23.670;2022-09-17T06:58:07;90656.38;;;18.47;73.86
44481;BME280;30184;42.018;23.670;2022-09-17T07:00:36;90771.69;;;19.58;73.35
44481;BME280;30184;42.018;23.670;2022-09-17T07:03:05;90770.03;;;19.16;71.75
44481;BME280;30184;42.018;23.670;2022-09-17T07:05:35;90768.53;;;19.04;71.23
44481;BME280;30184;42.018;23.670;2022-09-17T07:08:05;90635.13;;;18.64;71.91
44481;BME280;30184;42.018;23.670;2022-09-17T07:10:36;90526.72;;;18.65;70.40
44481;BME280;30184;42.018;23.670;2022-09-17T07:13:05;90792.63;;;19.84;71.71
44481;BME280;30184;42.018;23.670;2022-09-17T07:15:34;90576.69;;;18.63;71.22
44481;BME280;30184;42.018;23.670;2022-09-17T07:18:07;90637.28;;;19.05;69.62
44481;BME280;30184;42.018;23.670;2022-09-17T07:20:37;90508.16;;;18.82;70.20
44481;BME280;30184;42.018;23.670;2022-09-17T07:23:06;90661.72;;;20.29;69.66
44481;BME280;30184;42.018;23.670;2022-09-17T07:25:38;90739.47;;;21.17;68.44
44481;BME280;30184;42.018;23.670;2022-09-17T07:28:07;90353.94;;;18.50;66.97
44481;BME280;30184;42.018;23.670;2022-09-17T07:30:36;90648.75;;;20.19;68.04
44481;BME280;30184;42.018;23.670;2022-09-17T07:33:05;90734.72;;;21.12;66.96
44481;BME280;30184;42.018;23.670;2022-09-17T07:35:35;90702.25;;;21.24;66.27
44481;BME280;30184;42.018;23.670;2022-09-17T07:38:04;90679.94;;;20.98;65.92
44481;BME280;30184;42.018;23.670;2022-09-17T07:40:33;90653.91;;;20.93;64.45
44481;BME280;30184;42.018;23.670;2022-09-17T07:43:03;90709.03;;;21.90;62.62
44481;BME280;30184;42.018;23.670;2022-09-17T07:45:33;90599.91;;;20.55;62.85
44481;BME280;30184;42.018;23.670;2022-09-17T07:48:03;90616.34;;;20.36;60.98
44481;BME280;30184;42.018;23.670;2022-09-17T07:50:31;90563.97;;;20.66;60.73
44481;BME280;30184;42.018;23.670;2022-09-17T07:53:01;90516.81;;;20.88;61.58
44481;BME280;30184;42.018;23.670;2022-09-17T07:55:30;90614.50;;;21.41;61.37
44481;BME280;30184;42.018;23.670;2022-09-17T07:58:00;90737.13;;;21.94;59.32
44481;BME280;30184;42.018;23.670;2022-09-17T08:00:30;90809.63;;;22.81;59.39
44481;BME280;30184;42.018;23.670;2022-09-17T08:03:00;90533.59;;;21.33;59.82
44481;BME280;30184;42.018;23.670;2022-09-17T08:05:31;90556.69;;;22.05;60.12
44481;BME280;30184;42.018;23.670;2022-09-17T08:08:00;90681.28;;;23.03;59.12
44481;BME280;30184;42.018;23.670;2022-09-17T08:10:30;90507.13;;;21.43;57.33
44481;BME280;30184;42.018;23.670;2022-09-17T08:13:00;90702.84;;;22.91;58.99
44481;BME280;30184;42.018;23.670;2022-09-17T08:15:30;90672.31;;;23.55;55.10
44481;BME280;30184;42.018;23.670;2022-09-17T08:17:59;90698.59;;;23.75;53.94
44481;BME280;30184;42.018;23.670;2022-09-17T08:20:28;90728.66;;;23.97;55.93
44481;BME280;30184;42.018;23.670;2022-09-17T08:22:59;90656.00;;;23.78;61.16
44481;BME280;30184;42.018;23.670;2022-09-17T08:25:28;90482.72;;;22.69;60.12
44481;BME280;30184;42.018;23.670;2022-09-17T08:27:57;90745.91;;;24.16;59.34
44481;BME280;30184;42.018;23.670;2022-09-17T08:30:26;90711.47;;;24.25;60.31
44481;BME280;30184;42.018;23.670;2022-09-17T08:32:56;90698.44;;;24.20;59.66
44481;BME280;30184;42.018;23.670;2022-09-17T08:35:25;90543.75;;;22.58;58.81
44481;BME280;30184;42.018;23.670;2022-09-17T08:37:55;90498.84;;;22.52;59.06
44481;BME280;30184;42.018;23.670;2022-09-17T08:40:24;90668.03;;;22.83;59.45
44481;BME280;30184;42.018;23.670;2022-09-17T08:42:58;90520.56;;;21.84;59.81
44481;BME280;30184;42.018;23.670;2022-09-17T08:45:29;90537.03;;;21.58;60.74
44481;BME280;30184;42.018;23.670;2022-09-17T08:48:02;90475.31;;;21.55;60.92
44481;BME280;30184;42.018;23.670;2022-09-17T08:50:34;90682.78;;;23.17;61.53
44481;BME280;30184;42.018;23.670;2022-09-17T08:56:02;90694.72;;;23.12;61.93
44481;BME280;30184;42.018;23.670;2022-09-17T08:58:45;90590.47;;;22.30;61.26
44481;BME280;30184;42.018;23.670;2022-09-17T09:01:26;90545.69;;;21.68;62.08
44481;BME280;30184;42.018;23.670;2022-09-17T09:04:31;90647.38;;;22.70;62.24
44481;BME280;30184;42.018;23.670;2022-09-17T09:07:05;90504.09;;;21.60;60.66
44481;BME280;30184;42.018;23.670;2022-09-17T09:09:39;90503.09;;;21.44;62.49
44481;BME280;30184;42.018;23.670;2022-09-17T09:12:15;90669.00;;;22.03;62.88
44481;BME280;30184;42.018;23.670;2022-09-17T09:14:49;90524.56;;;21.51;63.74
44481;BME280;30184;42.018;23.670;2022-09-17T09:17:21;90639.63;;;22.18;62.39
44481;BME280;30184;42.018;23.670;2022-09-17T09:19:54;90541.88;;;21.52;63.36
44481;BME280;30184;42.018;23.670;2022-09-17T09:22:35;90447.00;;;20.80;64.40
44481;BME280;30184;42.018;23.670;2022-09-17T09:25:17;90698.97;;;22.49;64.84
44481;BME280;30184;42.018;23.670;2022-09-17T09:28:02;90608.81;;;21.58;66.24
44481;BME280;30184;42.018;23.670;2022-09-17T09:30:44;90680.38;;;21.93;67.96
44481;BME280;30184;42.018;23.670;2022-09-17T09:33:25;90546.59;;;20.46;69.59
44481;BME280;30184;42.018;23.670;2022-09-17T09:35:59;90703.75;;;21.92;73.88
44481;BME280;30184;42.018;23.670;2022-09-17T09:38:32;90535.69;;;20.35;76.30
44481;BME280;30184;42.018;23.670;2022-09-17T09:41:07;90503.44;;;19.70;76.69
44481;BME280;30184;42.018;23.670;2022-09-17T09:43:41;90673.13;;;20.74;77.42
44481;BME280;30184;42.018;23.670;2022-09-17T09:46:42;90581.72;;;19.23;78.35
44481;BME280;30184;42.018;23.670;2022-09-17T09:49:23;90611.91;;;19.92;81.44
44481;BME280;30184;42.018;23.670;2022-09-17T09:52:15;90745.47;;;20.56;81.28
44481;BME280;30184;42.018;23.670;2022-09-17T09:54:58;90645.97;;;19.25;82.48
44481;BME280;30184;42.018;23.670;2022-09-17T09:57:37;90698.84;;;19.70;82.51
44481;BME280;30184;42.018;23.670;2022-09-17T10:00:27;90584.38;;;18.87;83.83
44481;BME280;30184;42.018;23.670;2022-09-17T10:03:01;90700.69;;;19.40;85.57
44481;BME280;30184;42.018;23.670;2022-09-17T10:05:32;90642.09;;;18.82;85.91
44481;BME280;30184;42.018;23.670;2022-09-17T10:08:11;90672.88;;;18.58;87.42
44481;BME280;30184;42.018;23.670;2022-09-17T10:10:53;90814.19;;;19.68;83.10
44481;BME280;30184;42.018;23.670;2022-09-17T10:13:23;90741.31;;;18.73;80.98
44481;BME280;30184;42.018;23.670;2022-09-17T10:15:52;90757.50;;;18.32;82.68
44481;BME280;30184;42.018;23.670;2022-09-17T10:18:23;90738.75;;;18.13;81.25
44481;BME280;30184;42.018;23.670;2022-09-17T10:20:57;90504.53;;;16.85;83.17
44481;BME280;30184;42.018;23.670;2022-09-17T10:23:29;90826.50;;;18.84;83.84
44481;BME280;30184;42.018;23.670;2022-09-17T10:26:01;90891.25;;;19.13;85.37
44481;BME280;30184;42.018;23.670;2022-09-17T10:28:34;90697.72;;;17.65;86.13
44481;BME280;30184;42.018;23.670;2022-09-17T10:31:07;90867.84;;;18.30;86.73
44481;BME280;30184;42.018;23.670;2022-09-17T10:33:49;90806.00;;;17.81;87.90
44481;BME280;30184;42.018;23.670;2022-09-17T10:36:36;90711.94;;;16.73;87.97
44481;BME280;30184;42.018;23.670;2022-09-17T10:39:30;91023.38;;;18.70;90.61
44481;BME280;30184;42.018;23.670;2022-09-17T10:42:02;90954.50;;;18.37;90.69
44481;BME280;30184;42.018;23.670;2022-09-17T10:44:32;90927.44;;;18.67;91.16
44481;BME280;30184;42.018;23.670;2022-09-17T10:47:05;90767.97;;;16.72;90.06
44481;BME280;30184;42.018;23.670;2022-09-17T10:49:38;90815.31;;;17.52;91.41
44481;BME280;30184;42.018;23.670;2022-09-17T10:52:13;90838.28;;;17.54;91.90
44481;BME280;30184;42.018;23.670;2022-09-17T10:55:11;90837.19;;;17.78;91.09
44481;BME280;30184;42.018;23.670;2022-09-17T10:58:02;90904.31;;;18.36;90.20
44481;BME280;30184;42.018;23.670;2022-09-17T11:00:38;90817.69;;;17.70;91.67
44481;BME280;30184;42.018;23.670;2022-09-17T11:06:28;90912.69;;;18.05;92.22
44481;BME280;30184;42.018;23.670;2022-09-17T11:09:06;90674.47;;;16.22;91.86
44481;BME280;30184;42.018;23.670;2022-09-17T11:11:54;90905.94;;;18.06;92.56
44481;BME280;30184;42.018;23.670;2022-09-17T11:14:42;90894.44;;;18.07;93.16
44481;BME280;30184;42.018;23.670;2022-09-17T11:17:27;90589.19;;;15.66;93.23
44481;BME280;30184;42.018;23.670;2022-09-17T11:20:22;90794.53;;;17.34;94.04
44481;BME280;30184;42.018;23.670;2022-09-17T11:23:06;90652.56;;;16.59;93.24
44481;BME280;30184;42.018;23.670;2022-09-17T11:25:44;90735.84;;;17.09;93.63
44481;BME280;30184;42.018;23.670;2022-09-17T11:28:29;90661.88;;;17.26;94.35
44481;BME280;30184;42.018;23.670;2022-09-17T11:31:10;90746.53;;;17.56;93.90
44481;BME280;30184;42.018;23.670;2022-09-17T11:33:58;90679.50;;;17.03;93.88
44481;BME280;30184;42.018;23.670;2022-09-17T11:36:33;90767.69;;;18.14;94.12
44481;BME280;30184;42.018;23.670;2022-09-17T11:39:09;90584.66;;;16.68;93.26
44481;BME280;30184;42.018;23.670;2022-09-17T11:41:44;90509.44;;;16.64;92.74
44481;BME280;30184;42.018;23.670;2022-09-17T11:44:22;90452.56;;;16.42;90.97
44481;BME280;30184;42.018;23.670;2022-09-17T11:46:55;90681.03;;;17.91;91.89
44481;BME280;30184;42.018;23.670;2022-09-17T11:49:32;90577.44;;;17.41;91.13
44481;BME280;30184;42.018;23.670;2022-09-17T11:52:05;90744.31;;;18.80;89.46
44481;BME280;30184;42.018;23.670;2022-09-17T11:54:39;90496.28;;;16.73;86.85
44481;BME280;30184;42.018;23.670;2022-09-17T11:57:15;90603.94;;;17.89;86.30
44481;BME280;30184;42.018;23.670;2022-09-17T11:59:51;90511.59;;;17.19;85.73
44481;BME280;30184;42.018;23.670;2022-09-17T12:02:25;90518.41;;;17.68;83.96
44481;BME280;30184;42.018;23.670;2022-09-17T12:05:01;90492.69;;;17.49;84.19
44481;BME280;30184;42.018;23.670;2022-09-17T12:07:38;90662.16;;;19.51;85.25
44481;BME280;30184;42.018;23.670;2022-09-17T12:10:21;90682.16;;;19.46;83.52
44481;BME280;30184;42.018;23.670;2022-09-17T12:13:01;90755.91;;;19.70;82.60
44481;BME280;30184;42.018;23.670;2022-09-17T12:15:34;90629.25;;;19.75;81.55
44481;BME280;30184;42.018;23.670;2022-09-17T12:18:17;90661.78;;;20.18;79.77
44481;BME280;30184;42.018;23.670;2022-09-17T12:21:05;90379.91;;;17.92;78.65
44481;BME280;30184;42.018;23.670;2022-09-17T12:23:41;90621.88;;;19.95;77.81
44481;BME280;30184;42.018;23.670;2022-09-17T12:26:22;90553.94;;;19.32;76.63
44481;BME280;30184;42.018;23.670;2022-09-17T12:29:01;90506.44;;;18.79;78.90
44481;BME280;30184;42.018;23.670;2022-09-17T12:31:41;90573.38;;;18.87;79.41
44481;BME280;30184;42.018;23.670;2022-09-17T12:34:25;90578.50;;;19.65;81.07
44481;BME280;30184;42.018;23.670;2022-09-17T12:37:02;90585.00;;;19.73;80.26
44481;BME280;30184;42.018;23.670;2022-09-17T12:43:08;90630.31;;;20.02;80.33
44481;BME280;30184;42.018;23.670;2022-09-17T12:46:00;90574.69;;;19.33;80.76
44481;BME280;30184;42.018;23.670;2022-09-17T12:48:46;90430.06;;;17.98;81.30
44481;BME280;30184;42.018;23.670;2022-09-17T12:51:35;90479.88;;;18.93;81.42
44481;BME280;30184;42.018;23.670;2022-09-17T12:54:15;90612.69;;;19.34;81.75
44481;BME280;30184;42.018;23.670;2022-09-17T12:56:57;90420.47;;;18.26;81.07
44481;BME280;30184;42.018;23.670;2022-09-17T12:59:31;90601.88;;;19.48;80.89
44481;BME280;30184;42.018;23.670;2022-09-17T13:02:03;90514.94;;;19.28;80.30
44481;BME280;30184;42.018;23.670;2022-09-17T13:08:15;90603.38;;;20.25;76.23
44481;BME280;30184;42.018;23.670;2022-09-17T13:11:14;90615.19;;;20.20;77.33
44481;BME280;30184;42.018;23.670;2022-09-17T13:13:57;90570.38;;;19.49;78.23
44481;BME280;30184;42.018;23.670;2022-09-17T13:16:35;90662.56;;;19.72;79.01
44481;BME280;30184;42.018;23.670;2022-09-17T13:19:14;90253.66;;;17.23;77.00
44481;BME280;30184;42.018;23.670;2022-09-17T13:21:52;90566.13;;;19.42;77.34
44481;BME280;30184;42.018;23.670;2022-09-17T13:24:25;90654.03;;;19.75;79.89
44481;BME280;30184;42.018;23.670;2022-09-17T13:27:01;90398.91;;;17.62;78.05
44481;BME280;30184;42.018;23.670;2022-09-17T13:29:58;90597.59;;;19.93;78.11
44481;BME280;30184;42.018;23.670;2022-09-17T13:32:45;90607.13;;;19.92;79.66
44481;BME280;30184;42.018;23.670;2022-09-17T13:35:46;90584.13;;;19.90;80.91
44481;BME280;30184;42.018;23.670;2022-09-17T13:38:16;90363.91;;;18.01;78.99
44481;BME280;30184;42.018;23.670;2022-09-17T13:40:47;90505.75;;;18.56;79.14
44481;BME280;30184;42.018;23.670;2022-09-17T13:43:19;90533.06;;;19.07;78.52
44481;BME280;30184;42.018;23.670;2022-09-17T13:46:19;90529.13;;;19.37;79.75
44481;BME280;30184;42.018;23.670;2022-09-17T13:48:56;90400.84;;;17.89;79.66
44481;BME280;30184;42.018;23.670;2022-09-17T13:51:46;90552.47;;;19.72;81.17
44481;BME280;30184;42.018;23.670;2022-09-17T13:54:18;90430.88;;;18.50;81.91
44481;BME280;30184;42.018;23.670;2022-09-17T13:57:03;90556.50;;;19.65;82.61
44481;BME280;30184;42.018;23.670;2022-09-17T13:59:36;90527.53;;;19.12;83.01
44481;BME280;30184;42.018;23.670;2022-09-17T14:02:27;90544.09;;;19.53;84.07
44481;BME280;30184;42.018;23.670;2022-09-17T14:05:31;90402.84;;;18.63;85.59
44481;BME280;30184;42.018;23.670;2022-09-17T14:08:29;90536.34;;;19.46;86.54
44481;BME280;30184;42.018;23.670;2022-09-17T14:11:01;90534.63;;;19.43;87.16
44481;BME280;30184;42.018;23.670;2022-09-17T14:13:42;90403.44;;;18.39;87.17